Time;durP1;ratioP1;P1;durP2;ratioP2;P2;SDS_P1;SDS_P2;PMS_P1;PMS_P2;Temp;Humidity;BMP_temperature;BMP_pressure;BME280_temperature;BME280_humidity;BME280_pressure;Samples;Min_cycle;Max_cycle;Signal;HPM_P1;HPM_P2
2022/05/15 00:01:23;;;;;;;11.03;5.80;;;12.00;99.90;;;;;;5070092;28;20193;-52
2022/05/15 00:03:52;;;;;;;10.17;5.17;;;12.00;99.90;;;;;;5070091;28;20258;-52
2022/05/15 00:06:20;;;;;;;11.80;5.60;;;12.00;99.90;;;;;;5061123;28;20240;-52
2022/05/15 00:08:48;;;;;;;9.60;5.47;;;11.90;99.90;;;;;;5053648;28;20312;-52
2022/05/15 00:11:18;;;;;;;10.27;5.10;;;11.90;99.90;;;;;;5070615;28;20209;-52
2022/05/15 00:13:47;;;;;;;12.63;5.53;;;11.80;99.90;;;;;;5069961;28;20224;-52
2022/05/15 00:16:16;;;;;;;12.50;5.13;;;11.80;99.90;;;;;;5069824;28;20212;-52
2022/05/15 00:18:46;;;;;;;14.90;5.50;;;11.80;99.90;;;;;;5070348;28;20289;-52
2022/05/15 00:21:14;;;;;;;8.40;5.33;;;11.80;99.90;;;;;;5068998;28;20271;-52
2022/05/15 00:23:43;;;;;;;12.20;6.00;;;11.80;99.90;;;;;;5070059;28;20632;-52
2022/05/15 00:26:12;;;;;;;12.43;5.83;;;11.80;99.90;;;;;;5070158;28;20244;-51
2022/05/15 00:28:40;;;;;;;11.37;5.47;;;11.80;99.90;;;;;;5070309;28;20225;-52
2022/05/15 00:31:08;;;;;;;15.80;5.83;;;11.90;99.90;;;;;;5069964;28;20752;-52
2022/05/15 00:33:36;;;;;;;13.20;5.73;;;11.90;99.90;;;;;;5069334;28;20966;-52
2022/05/15 00:36:06;;;;;;;10.63;5.10;;;11.90;99.90;;;;;;5070357;28;20270;-51
2022/05/15 00:38:34;;;;;;;10.23;5.30;;;11.90;99.90;;;;;;5069628;28;20280;-52
2022/05/15 00:41:02;;;;;;;11.17;5.90;;;11.90;99.90;;;;;;5069841;28;20209;-52
2022/05/15 00:43:42;;;;;;;13.60;5.33;;;11.90;99.90;;;;;;5069276;28;20209;-52
2022/05/15 00:46:15;;;;;;;12.57;5.63;;;11.80;99.90;;;;;;5059605;28;20205;-52
2022/05/15 00:48:44;;;;;;;11.23;5.80;;;11.80;99.90;;;;;;5050101;28;20726;-51
2022/05/15 00:51:18;;;;;;;9.40;5.57;;;11.80;99.90;;;;;;5069587;28;20625;-51
2022/05/15 00:53:50;;;;;;;11.37;5.40;;;11.80;99.90;;;;;;5069364;28;20700;-52
2022/05/15 00:56:21;;;;;;;12.00;5.77;;;11.70;99.90;;;;;;5070058;28;20736;-52
2022/05/15 00:58:53;;;;;;;13.97;5.33;;;11.70;99.90;;;;;;5069121;28;20800;-52
2022/05/15 01:01:21;;;;;;;11.80;5.67;;;11.70;99.90;;;;;;5069539;28;20748;-51
2022/05/15 01:03:50;;;;;;;11.60;5.80;;;11.70;99.90;;;;;;5069400;28;20204;-52
2022/05/15 01:06:20;;;;;;;11.40;5.37;;;11.60;99.90;;;;;;5069792;28;20255;-52
2022/05/15 01:08:48;;;;;;;11.60;5.30;;;11.60;99.90;;;;;;5069761;28;20255;-50
2022/05/15 01:11:19;;;;;;;8.43;5.23;;;11.70;99.90;;;;;;5069875;28;20262;-51
2022/05/15 01:13:49;;;;;;;11.83;5.47;;;11.70;99.90;;;;;;5068684;28;20209;-52
2022/05/15 01:16:22;;;;;;;10.70;5.17;;;11.60;99.90;;;;;;5051975;28;20217;-52
2022/05/15 01:18:54;;;;;;;12.03;5.63;;;11.60;99.90;;;;;;5049106;28;20237;-52
2022/05/15 01:21:28;;;;;;;9.03;5.13;;;11.60;99.90;;;;;;5048588;28;20415;-52
2022/05/15 01:23:56;;;;;;;13.33;5.63;;;11.60;99.90;;;;;;5048641;28;20241;-52
2022/05/15 01:26:26;;;;;;;10.97;5.63;;;11.60;99.90;;;;;;5054599;28;20233;-52
2022/05/15 01:28:54;;;;;;;12.03;6.00;;;11.60;99.90;;;;;;5076552;28;20301;-52
2022/05/15 01:31:23;;;;;;;14.47;6.27;;;11.50;99.90;;;;;;5049173;28;20267;-52
2022/05/15 01:33:52;;;;;;;15.03;5.90;;;11.50;99.90;;;;;;5049190;28;20212;-52
2022/05/15 01:36:23;;;;;;;11.67;5.77;;;11.50;99.90;;;;;;5048889;28;20240;-52
2022/05/15 01:38:52;;;;;;;8.67;5.87;;;11.50;99.90;;;;;;5048725;28;20252;-52
2022/05/15 01:41:21;;;;;;;11.10;5.93;;;11.50;99.90;;;;;;5048701;28;20213;-52
2022/05/15 01:43:52;;;;;;;17.03;6.43;;;11.50;99.90;;;;;;5048996;28;20206;-52
2022/05/15 01:46:22;;;;;;;12.13;6.10;;;11.40;99.90;;;;;;5051801;28;20551;-52
2022/05/15 01:48:51;;;;;;;14.70;5.97;;;11.40;99.90;;;;;;5069061;28;20611;-52
2022/05/15 01:51:20;;;;;;;12.20;5.97;;;11.40;99.90;;;;;;5069471;28;20208;-52
2022/05/15 01:53:48;;;;;;;11.53;5.83;;;11.40;99.90;;;;;;5068767;28;20233;-52
2022/05/15 01:56:18;;;;;;;17.00;6.30;;;11.30;99.90;;;;;;5068752;28;20228;-52
2022/05/15 01:58:46;;;;;;;10.03;5.83;;;11.30;99.90;;;;;;5068273;28;20260;-52
2022/05/15 02:01:14;;;;;;;9.87;5.50;;;11.30;99.90;;;;;;5068921;28;20267;-52
2022/05/15 02:03:42;;;;;;;11.40;6.13;;;11.30;99.90;;;;;;5068737;28;20208;-52
2022/05/15 02:06:10;;;;;;;11.57;6.00;;;11.30;99.90;;;;;;5068432;28;20201;-52
2022/05/15 02:08:39;;;;;;;11.83;5.93;;;11.20;99.90;;;;;;5068732;28;20264;-52
2022/05/15 02:11:07;;;;;;;13.77;6.30;;;11.20;99.90;;;;;;5068724;28;20209;-52
2022/05/15 02:13:37;;;;;;;14.03;6.20;;;11.20;99.90;;;;;;5068213;28;20735;-52
2022/05/15 02:16:05;;;;;;;15.87;6.80;;;11.20;99.90;;;;;;5052936;28;20230;-52
2022/05/15 02:18:33;;;;;;;10.40;5.80;;;11.10;99.90;;;;;;5048711;28;20263;-51
2022/05/15 02:21:02;;;;;;;12.03;6.40;;;11.10;99.90;;;;;;5047772;28;20300;-52
2022/05/15 02:23:30;;;;;;;10.80;6.37;;;11.10;99.90;;;;;;5050769;28;20209;-51
2022/05/15 02:25:58;;;;;;;16.80;6.73;;;11.10;99.90;;;;;;5053078;28;20237;-52
2022/05/15 02:28:27;;;;;;;12.73;5.97;;;11.10;99.90;;;;;;5052755;28;20931;-52
2022/05/15 02:30:56;;;;;;;14.50;6.83;;;11.10;99.90;;;;;;5053015;28;20206;-52
2022/05/15 02:33:30;;;;;;;17.07;6.73;;;11.10;99.90;;;;;;5052561;28;20198;-50
2022/05/15 02:35:58;;;;;;;12.67;6.40;;;11.10;99.90;;;;;;5052653;28;20255;-52
2022/05/15 02:38:27;;;;;;;12.07;5.70;;;11.00;99.90;;;;;;5052706;28;20271;-52
2022/05/15 02:40:55;;;;;;;15.43;6.63;;;11.00;99.90;;;;;;5052512;28;20259;-52
2022/05/15 02:43:23;;;;;;;15.00;6.20;;;11.00;99.90;;;;;;5052464;28;20242;-51
2022/05/15 02:45:51;;;;;;;14.13;6.60;;;11.00;99.90;;;;;;5052073;28;20245;-51
2022/05/15 02:51:07;;;;;;;11.80;6.43;;;10.90;99.90;;;;;;5071297;28;20274;-52
2022/05/15 02:53:38;;;;;;;12.83;6.43;;;10.80;99.90;;;;;;5072095;28;20209;-51
2022/05/15 02:56:09;;;;;;;12.93;5.80;;;10.80;99.90;;;;;;5071972;28;20704;-51
2022/05/15 02:58:37;;;;;;;10.93;6.10;;;10.80;99.90;;;;;;5067651;28;20275;-51
2022/05/15 03:01:06;;;;;;;13.40;6.13;;;10.80;99.90;;;;;;5052080;28;20213;-51
2022/05/15 03:03:36;;;;;;;12.47;6.47;;;10.80;99.90;;;;;;5051512;28;20298;-51
2022/05/15 03:06:05;;;;;;;12.97;6.20;;;10.80;99.90;;;;;;5052303;28;20289;-51
2022/05/15 03:08:35;;;;;;;14.13;6.53;;;10.80;99.90;;;;;;5053068;28;20233;-51
2022/05/15 03:11:03;;;;;;;11.10;5.97;;;10.70;99.90;;;;;;5071854;28;20624;-52
2022/05/15 03:13:31;;;;;;;16.60;6.47;;;10.70;99.90;;;;;;5071177;28;20251;-52
2022/05/15 03:15:59;;;;;;;14.83;7.03;;;10.70;99.90;;;;;;5071915;28;20286;-52
2022/05/15 03:18:27;;;;;;;16.07;6.70;;;10.70;99.90;;;;;;5071743;28;20256;-51
2022/05/15 03:20:56;;;;;;;16.63;6.57;;;10.60;99.90;;;;;;5070541;28;20278;-51
2022/05/15 03:23:25;;;;;;;12.57;6.23;;;10.60;99.90;;;;;;5072100;28;20707;-52
2022/05/15 03:25:53;;;;;;;14.77;6.30;;;10.60;99.90;;;;;;5071561;28;20254;-52
2022/05/15 03:28:21;;;;;;;11.80;6.77;;;10.60;99.90;;;;;;5071259;28;20205;-51
2022/05/15 03:30:49;;;;;;;10.27;6.50;;;10.70;99.90;;;;;;5053089;28;20687;-52
2022/05/15 03:33:17;;;;;;;17.13;7.00;;;10.70;99.90;;;;;;5051151;28;20249;-52
2022/05/15 03:35:46;;;;;;;13.90;6.77;;;10.60;99.90;;;;;;5050877;28;20283;-52
2022/05/15 03:38:15;;;;;;;16.57;7.03;;;10.70;99.90;;;;;;5051481;28;20253;-52
2022/05/15 03:40:44;;;;;;;13.07;7.17;;;10.70;99.90;;;;;;5051070;28;20211;-51
2022/05/15 03:43:12;;;;;;;10.60;6.33;;;10.70;99.90;;;;;;5051076;28;20232;-51
2022/05/15 03:45:40;;;;;;;12.03;7.00;;;10.70;99.90;;;;;;5051414;28;20205;-52
2022/05/15 03:48:08;;;;;;;15.37;7.90;;;10.60;99.90;;;;;;5057208;28;20198;-52
2022/05/15 03:50:37;;;;;;;14.97;7.17;;;10.70;99.90;;;;;;5069691;28;20197;-52
2022/05/15 03:53:05;;;;;;;12.40;6.40;;;10.70;99.90;;;;;;5068501;28;20258;-52
2022/05/15 03:55:34;;;;;;;15.10;7.43;;;10.70;99.90;;;;;;5069006;28;20253;-52
2022/05/15 03:58:02;;;;;;;14.60;6.57;;;10.70;99.90;;;;;;5070231;28;20867;-52
2022/05/15 04:00:30;;;;;;;12.93;7.00;;;10.70;99.90;;;;;;5050671;28;20690;-52
2022/05/15 04:02:58;;;;;;;15.30;7.60;;;10.70;99.90;;;;;;5050623;28;20220;-52
2022/05/15 04:05:27;;;;;;;13.03;6.80;;;10.70;99.90;;;;;;5050457;28;20213;-52
2022/05/15 04:07:57;;;;;;;16.83;7.47;;;10.60;99.90;;;;;;5050177;28;20697;-52
2022/05/15 04:10:29;;;;;;;12.17;7.23;;;10.60;99.90;;;;;;5066462;28;20251;-52
2022/05/15 04:12:58;;;;;;;11.07;6.70;;;10.60;99.90;;;;;;5070211;28;20201;-52
2022/05/15 04:15:26;;;;;;;11.67;6.80;;;10.60;99.90;;;;;;5070395;28;20213;-52
2022/05/15 04:17:54;;;;;;;9.00;6.30;;;11.10;99.90;;;;;;5070246;28;20346;-52
2022/05/15 04:20:24;;;;;;;12.33;6.73;;;11.60;99.90;;;;;;5069267;28;20232;-52
2022/05/15 04:22:53;;;;;;;11.50;6.60;;;12.10;99.90;;;;;;5074520;28;20842;-53
2022/05/15 04:25:22;;;;;;;14.93;6.57;;;12.50;99.90;;;;;;5062402;28;20682;-52
2022/05/15 04:27:50;;;;;;;12.40;6.40;;;13.00;99.90;;;;;;5062263;28;20197;-52
2022/05/15 04:30:23;;;;;;;10.47;6.53;;;13.30;99.90;;;;;;5069263;28;20260;-52
2022/05/15 04:32:52;;;;;;;10.27;5.87;;;13.70;99.90;;;;;;5061660;28;20205;-52
2022/05/15 04:35:21;;;;;;;13.13;5.30;;;14.20;99.90;;;;;;5065831;28;20259;-52
2022/05/15 04:37:51;;;;;;;11.50;5.40;;;14.60;99.90;;;;;;5049821;28;20292;-52
2022/05/15 04:40:21;;;;;;;9.37;5.13;;;14.90;99.90;;;;;;5049788;28;20240;-52
2022/05/15 04:42:49;;;;;;;11.93;5.10;;;15.30;99.90;;;;;;5049262;28;20696;-52
2022/05/15 04:45:20;;;;;;;11.80;5.18;;;15.60;99.90;;;;;;5049621;28;20202;-53
2022/05/15 04:47:48;;;;;;;7.18;4.82;;;15.80;99.90;;;;;;5058838;28;20657;-53
2022/05/15 04:50:18;;;;;;;11.85;5.38;;;15.70;99.90;;;;;;5048514;28;20753;-52
2022/05/15 04:52:47;;;;;;;9.18;5.28;;;16.20;99.90;;;;;;5054118;28;20244;-53
2022/05/15 04:55:16;;;;;;;8.95;5.32;;;16.40;99.90;;;;;;5051646;28;20627;-52
2022/05/15 04:57:44;;;;;;;12.02;5.97;;;16.60;99.90;;;;;;5051468;28;20226;-52
2022/05/15 05:00:18;;;;;;;10.52;5.45;;;16.80;99.90;;;;;;5065908;28;20225;-53
2022/05/15 05:02:49;;;;;;;7.68;5.00;;;17.20;99.90;;;;;;5056576;28;20208;-52
2022/05/15 05:05:17;;;;;;;13.15;5.15;;;17.40;99.90;;;;;;5049335;28;20214;-53
2022/05/15 05:07:46;;;;;;;12.75;5.57;;;17.40;99.90;;;;;;5059522;28;20224;-52
2022/05/15 05:10:15;;;;;;;12.55;5.00;;;17.70;99.90;;;;;;5053582;28;20268;-53
2022/05/15 05:12:44;;;;;;;12.07;4.95;;;18.10;99.90;;;;;;5048642;28;20214;-53
2022/05/15 05:15:13;;;;;;;11.10;4.60;;;18.40;99.90;;;;;;5048290;28;20229;-53
2022/05/15 05:17:41;;;;;;;12.95;5.13;;;18.60;99.90;;;;;;5048501;28;20225;-53
2022/05/15 05:20:12;;;;;;;9.95;4.80;;;18.90;99.90;;;;;;5048175;28;20221;-52
2022/05/15 05:22:41;;;;;;;10.30;4.57;;;19.30;99.90;;;;;;5065273;28;20248;-52
2022/05/15 05:25:11;;;;;;;13.10;4.88;;;19.40;99.90;;;;;;5068185;28;20237;-52
2022/05/15 05:27:41;;;;;;;11.20;4.65;;;19.60;99.90;;;;;;5052952;28;20229;-52
2022/05/15 05:30:13;;;;;;;14.77;4.63;;;19.70;99.90;;;;;;5053015;28;20256;-53
2022/05/15 05:32:41;;;;;;;15.32;5.00;;;19.90;99.90;;;;;;5058753;28;20209;-52
2022/05/15 05:35:12;;;;;;;12.70;5.18;;;20.10;99.90;;;;;;5059019;28;20288;-53
2022/05/15 05:37:40;;;;;;;14.07;4.80;;;20.40;99.90;;;;;;5048014;28;20229;-52
2022/05/15 05:40:09;;;;;;;10.23;4.50;;;20.50;99.90;;;;;;5048138;28;20271;-52
2022/05/15 05:42:38;;;;;;;16.75;5.35;;;20.70;99.90;;;;;;5067207;28;20365;-53
2022/05/15 05:45:07;;;;;;;10.50;4.45;;;20.80;99.90;;;;;;5068660;28;20258;-52
2022/05/15 05:47:35;;;;;;;14.07;4.90;;;20.90;99.90;;;;;;5052105;28;20296;-53
2022/05/15 05:50:05;;;;;;;14.55;5.45;;;21.10;99.90;;;;;;5052590;28;20248;-51
2022/05/15 05:52:34;;;;;;;14.45;4.90;;;21.10;99.90;;;;;;5049712;28;20208;-53
2022/05/15 05:55:02;;;;;;;14.25;5.05;;;21.20;99.90;;;;;;5049226;28;20244;-52
2022/05/15 05:57:30;;;;;;;12.13;4.93;;;21.40;99.90;;;;;;5050759;28;20257;-52
2022/05/15 05:59:58;;;;;;;10.50;4.78;;;21.40;99.90;;;;;;5055338;28;21040;-53
2022/05/15 06:02:26;;;;;;;13.50;5.22;;;21.60;99.90;;;;;;5053542;28;20855;-52
2022/05/15 06:04:53;;;;;;;12.50;4.70;;;22.10;99.90;;;;;;5052662;28;20213;-53
2022/05/15 06:07:26;;;;;;;10.55;4.72;;;22.50;99.90;;;;;;5051265;28;20208;-52
2022/05/15 06:09:56;;;;;;;10.90;4.97;;;22.70;99.90;;;;;;5062267;28;20252;-53
2022/05/15 06:12:25;;;;;;;12.18;4.70;;;23.00;99.90;;;;;;5070730;28;20234;-52
2022/05/15 06:14:54;;;;;;;14.82;4.78;;;23.20;99.90;;;;;;5068073;28;20241;-52
2022/05/15 06:17:23;;;;;;;12.32;4.82;;;23.50;99.90;;;;;;5071212;28;21511;-53
2022/05/15 06:19:52;;;;;;;12.00;4.47;;;23.70;99.90;;;;;;5071423;28;20359;-53
2022/05/15 06:22:20;;;;;;;10.70;5.15;;;23.70;99.80;;;;;;5071255;28;20259;-53
2022/05/15 06:24:48;;;;;;;10.55;4.63;;;23.80;99.40;;;;;;5071672;28;20240;-53
2022/05/15 06:27:18;;;;;;;11.07;4.50;;;24.20;99.50;;;;;;5070872;28;20255;-53
2022/05/15 06:29:46;;;;;;;10.73;4.55;;;24.50;99.90;;;;;;5071128;28;20655;-53
2022/05/15 06:32:14;;;;;;;13.90;4.53;;;24.50;99.90;;;;;;5071109;28;20247;-53
2022/05/15 06:34:42;;;;;;;9.07;4.00;;;24.60;99.10;;;;;;5071440;28;20299;-53
2022/05/15 06:37:10;;;;;;;11.52;4.97;;;24.60;98.90;;;;;;5070938;28;20335;-53
2022/05/15 06:39:38;;;;;;;11.63;4.85;;;24.60;98.70;;;;;;5071179;28;20275;-53
2022/05/15 06:42:07;;;;;;;11.65;4.60;;;24.80;97.50;;;;;;5070356;28;20301;-54
2022/05/15 06:44:37;;;;;;;12.93;4.75;;;24.80;97.30;;;;;;5071453;28;20327;-54
2022/05/15 06:47:06;;;;;;;13.27;5.05;;;24.90;96.80;;;;;;5071080;28;20205;-54
2022/05/15 06:49:34;;;;;;;12.93;4.95;;;24.80;96.00;;;;;;5071341;28;20290;-54
2022/05/15 06:52:02;;;;;;;10.57;4.10;;;25.00;96.10;;;;;;5062527;28;20213;-54
2022/05/15 06:54:30;;;;;;;14.20;4.53;;;25.10;95.40;;;;;;5050982;28;20252;-54
2022/05/15 06:59:45;;;;;;;11.25;4.72;;;25.20;95.40;;;;;;5053812;28;21139;-54
2022/05/15 07:02:13;;;;;;;10.30;4.43;;;25.10;96.00;;;;;;5063986;28;20201;-53
2022/05/15 07:04:41;;;;;;;9.52;4.68;;;25.20;96.40;;;;;;5057738;28;20213;-53
2022/05/15 07:07:10;;;;;;;9.57;4.40;;;25.30;96.20;;;;;;5063900;28;20205;-54
2022/05/15 07:09:38;;;;;;;11.95;4.63;;;25.40;96.60;;;;;;5064137;28;20324;-54
2022/05/15 07:12:08;;;;;;;10.55;4.88;;;25.30;95.60;;;;;;5064855;28;20230;-54
2022/05/15 07:14:36;;;;;;;11.10;4.50;;;25.20;95.60;;;;;;5062949;28;20237;-53
2022/05/15 07:17:06;;;;;;;15.18;4.95;;;25.50;96.30;;;;;;5062025;28;20209;-54
2022/05/15 07:19:41;;;;;;;15.02;4.80;;;25.50;95.30;;;;;;5069200;28;20231;-54
2022/05/15 07:22:11;;;;;;;10.68;4.25;;;25.40;95.50;;;;;;5070423;28;20912;-53
2022/05/15 07:24:40;;;;;;;8.35;4.38;;;25.40;95.70;;;;;;5063947;28;20922;-54
2022/05/15 07:27:10;;;;;;;12.98;4.53;;;25.40;95.70;;;;;;5059164;28;20251;-53
2022/05/15 07:29:38;;;;;;;9.73;4.30;;;25.60;96.00;;;;;;5050736;28;20284;-53
2022/05/15 07:32:10;;;;;;;13.60;4.43;;;25.80;95.70;;;;;;5060112;28;20227;-54
2022/05/15 07:34:39;;;;;;;10.60;4.53;;;25.80;95.50;;;;;;5090750;28;20208;-54
2022/05/15 07:37:07;;;;;;;11.27;4.40;;;25.70;95.70;;;;;;5067805;28;20213;-53
2022/05/15 07:39:36;;;;;;;10.52;4.57;;;25.60;96.00;;;;;;5050281;28;20753;-54
2022/05/15 07:42:05;;;;;;;10.23;4.55;;;25.70;95.60;;;;;;5050605;28;20237;-53
2022/05/15 07:44:33;;;;;;;15.02;4.80;;;25.90;94.60;;;;;;5049204;28;20210;-53
2022/05/15 07:47:02;;;;;;;9.63;4.28;;;25.80;94.70;;;;;;5050121;28;20249;-53
2022/05/15 07:49:32;;;;;;;8.48;3.88;;;25.80;94.80;;;;;;5056170;28;20224;-54
2022/05/15 07:52:00;;;;;;;9.48;4.03;;;25.80;95.70;;;;;;5069521;28;20570;-53
2022/05/15 07:54:28;;;;;;;11.75;4.47;;;25.90;93.90;;;;;;5070120;28;20205;-54
2022/05/15 07:56:56;;;;;;;11.43;4.10;;;25.90;93.90;;;;;;5070106;28;20262;-54
2022/05/15 07:59:24;;;;;;;12.38;4.15;;;25.80;93.30;;;;;;5068570;28;20333;-53
2022/05/15 08:01:55;;;;;;;10.55;4.10;;;25.70;93.00;;;;;;5069763;28;20240;-53
2022/05/15 08:04:23;;;;;;;10.82;4.40;;;25.50;93.90;;;;;;5063632;28;20204;-53
2022/05/15 08:09:53;;;;;;;9.93;3.90;;;25.10;92.50;;;;;;4989815;28;20253;-54
2022/05/15 08:12:21;;;;;;;7.93;3.95;;;24.70;93.40;;;;;;4992943;28;20204;-53
2022/05/15 08:14:49;;;;;;;12.70;4.22;;;24.50;93.30;;;;;;5022445;28;20213;-54
2022/05/15 08:17:17;;;;;;;8.82;4.07;;;24.30;93.10;;;;;;5067618;28;20255;-53
2022/05/15 08:25:20;;;;;;;15.27;3.95;;;24.10;92.90;;;;;;5068010;28;20217;-52
2022/05/15 08:27:48;;;;;;;8.07;3.75;;;24.10;92.90;;;;;;5069215;28;20208;-53
2022/05/15 08:30:17;;;;;;;8.15;3.80;;;24.00;93.50;;;;;;5068961;28;20233;-53
2022/05/15 08:32:46;;;;;;;9.05;4.13;;;23.90;93.80;;;;;;5068250;28;20212;-53
2022/05/15 08:35:14;;;;;;;11.88;4.38;;;23.70;94.20;;;;;;5068852;28;20205;-53
2022/05/15 08:37:43;;;;;;;8.30;3.60;;;23.70;93.70;;;;;;5069007;28;20754;-53
2022/05/15 08:40:12;;;;;;;10.05;3.75;;;23.90;94.00;;;;;;5068660;28;20666;-53
2022/05/15 08:42:50;;;;;;;11.00;3.97;;;24.10;94.50;;;;;;5068351;28;20208;-53
2022/05/15 08:45:19;;;;;;;9.63;3.92;;;24.00;93.90;;;;;;5069198;28;20208;-53
2022/05/15 08:47:49;;;;;;;12.55;4.43;;;24.00;94.80;;;;;;5068776;28;20720;-53
2022/05/15 08:50:19;;;;;;;7.18;3.60;;;24.00;93.20;;;;;;5068558;28;20224;-53
2022/05/15 08:52:55;;;;;;;11.73;4.28;;;24.00;93.50;;;;;;5068469;28;20193;-53
2022/05/15 08:55:26;;;;;;;9.90;4.05;;;23.90;94.10;;;;;;5068200;28;20707;-53
2022/05/15 08:57:57;;;;;;;9.45;4.00;;;24.00;92.90;;;;;;5069068;28;20288;-53
2022/05/15 09:00:30;;;;;;;8.60;3.70;;;24.00;93.50;;;;;;5068514;28;20290;-53
2022/05/15 09:03:12;;;;;;;10.75;4.47;;;23.90;94.50;;;;;;5048862;28;20248;-53
2022/05/15 09:05:54;;;;;;;10.93;4.30;;;23.90;93.90;;;;;;5068457;28;20212;-53
2022/05/15 09:08:55;;;;;;;14.60;4.13;;;23.90;95.00;;;;;;5049199;28;20205;-53
2022/05/15 09:11:36;;;;;;;9.95;4.15;;;23.90;94.10;;;;;;5046609;28;20259;-53
2022/05/15 09:14:12;;;;;;;9.63;4.10;;;23.90;95.00;;;;;;5048062;28;20225;-53
2022/05/15 09:16:44;;;;;;;9.55;4.50;;;23.80;94.20;;;;;;5048680;28;20629;-53
2022/05/15 09:19:14;;;;;;;9.82;3.97;;;23.70;93.50;;;;;;5048583;28;20233;-53
2022/05/15 09:21:42;;;;;;;10.20;4.03;;;23.70;94.20;;;;;;5048300;28;20244;-53
2022/05/15 09:24:24;;;;;;;9.93;3.70;;;23.70;94.20;;;;;;5048778;28;20279;-53
2022/05/15 09:26:52;;;;;;;11.50;4.22;;;23.70;95.80;;;;;;5048428;28;20339;-53
2022/05/15 09:29:26;;;;;;;8.70;3.97;;;23.90;94.80;;;;;;5048500;28;20359;-53
2022/05/15 09:31:54;;;;;;;9.15;3.88;;;23.90;95.10;;;;;;5048420;28;20308;-53
2022/05/15 09:34:27;;;;;;;9.20;3.97;;;23.80;95.40;;;;;;5052068;28;20245;-53
2022/05/15 09:38:26;;;;;;;9.70;3.70;;;23.60;94.50;;;;;;5052562;28;20244;-54
2022/05/15 09:39:48;;;;;;;8.65;3.60;;;23.70;95.00;;;;;;5051803;28;20281;-53
2022/05/15 09:45:20;;;;;;;7.95;3.85;;;23.80;95.60;;;;;;5016614;28;20201;-53
2022/05/15 09:48:02;;;;;;;15.30;4.60;;;23.90;95.10;;;;;;5058973;28;20209;-53
2022/05/15 09:50:43;;;;;;;13.55;4.93;;;23.90;93.80;;;;;;5071868;28;20275;-53
2022/05/15 09:53:18;;;;;;;10.10;3.80;;;23.90;93.40;;;;;;5066875;28;20254;-53
2022/05/15 09:55:58;;;;;;;8.13;3.90;;;24.00;92.70;;;;;;5071931;28;20208;-52
2022/05/15 09:58:26;;;;;;;8.32;4.25;;;24.00;93.10;;;;;;5068242;28;20269;-53
2022/05/15 10:01:25;;;;;;;9.77;3.90;;;23.80;93.20;;;;;;5067591;28;20643;-53
2022/05/15 10:03:55;;;;;;;8.30;4.13;;;23.90;93.80;;;;;;5051228;28;20215;-53
2022/05/15 10:06:25;;;;;;;9.05;3.95;;;23.80;95.90;;;;;;5054541;28;20237;-53
2022/05/15 10:09:12;;;;;;;9.38;3.80;;;23.90;98.30;;;;;;5053482;28;20224;-53
2022/05/15 10:11:45;;;;;;;9.35;4.10;;;24.10;96.10;;;;;;5052511;28;20258;-53
2022/05/15 10:14:25;;;;;;;9.60;3.90;;;24.00;95.80;;;;;;5059572;28;20255;-53
2022/05/15 10:16:55;;;;;;;10.18;4.10;;;24.00;96.90;;;;;;5049814;28;20240;-53
2022/05/15 10:19:29;;;;;;;10.00;3.70;;;24.10;95.20;;;;;;5052954;28;20271;-53
2022/05/15 10:22:05;;;;;;;6.88;3.40;;;24.00;94.20;;;;;;5057298;28;20259;-52
2022/05/15 10:24:40;;;;;;;9.07;3.65;;;24.00;96.20;;;;;;5068994;28;20204;-52
2022/05/15 10:27:15;;;;;;;11.82;3.70;;;24.10;94.10;;;;;;5071200;28;20242;-53
2022/05/15 10:29:49;;;;;;;10.07;3.33;;;24.00;95.50;;;;;;5054190;28;20216;-53
2022/05/15 10:32:20;;;;;;;8.35;3.92;;;24.10;95.70;;;;;;5070300;28;20205;-53
2022/05/15 10:34:48;;;;;;;9.25;3.70;;;24.20;95.30;;;;;;5063395;28;20240;-53
2022/05/15 10:37:54;;;;;;;8.20;3.60;;;24.30;96.60;;;;;;5059280;28;20268;-52
2022/05/15 10:40:30;;;;;;;7.50;3.55;;;24.40;96.80;;;;;;5007600;28;20230;-52
2022/05/15 10:43:11;;;;;;;11.07;4.28;;;24.50;95.90;;;;;;5052060;28;20641;-53
2022/05/15 10:45:46;;;;;;;9.70;3.70;;;24.40;94.40;;;;;;5069656;28;20330;-53
2022/05/15 10:48:46;;;;;;;7.45;3.80;;;24.30;94.00;;;;;;5070980;28;20210;-53
2022/05/15 10:51:20;;;;;;;7.50;3.50;;;24.40;95.90;;;;;;5057078;28;20227;-53
2022/05/15 11:00:15;;;;;;;8.50;3.60;;;24.20;93.50;;;;;;4989086;28;20322;-52
2022/05/15 11:03:12;;;;;;;9.20;3.50;;;24.40;97.00;;;;;;5054680;28;20209;-52
2022/05/15 11:05:50;;;;;;;6.57;3.67;;;24.50;96.00;;;;;;5071091;28;20299;-53
2022/05/15 11:08:30;;;;;;;8.90;3.28;;;24.60;96.90;;;;;;5070110;28;20208;-52
2022/05/15 11:11:06;;;;;;;8.48;3.35;;;24.50;94.00;;;;;;5056481;28;20620;-53
2022/05/15 11:13:42;;;;;;;9.02;3.35;;;24.40;95.00;;;;;;5050283;28;20737;-53
2022/05/15 11:16:15;;;;;;;8.90;3.35;;;24.50;95.70;;;;;;5050103;28;20213;-53
2022/05/15 11:18:56;;;;;;;6.57;3.38;;;24.60;96.60;;;;;;5049173;28;20582;-53
2022/05/15 11:21:30;;;;;;;11.90;4.07;;;24.60;95.50;;;;;;5050263;28;20601;-53
2022/05/15 11:24:02;;;;;;;10.57;3.38;;;24.30;94.50;;;;;;5052599;28;20225;-52
2022/05/15 11:26:36;;;;;;;10.35;3.35;;;24.20;96.70;;;;;;5050734;28;20213;-53
2022/05/15 11:29:08;;;;;;;7.65;3.35;;;24.20;95.60;;;;;;5053501;28;20696;-53
2022/05/15 11:31:45;;;;;;;7.82;3.17;;;24.20;94.30;;;;;;5050613;28;20303;-54
2022/05/15 11:34:13;;;;;;;8.00;3.35;;;24.10;92.20;;;;;;5050536;28;20312;-54
2022/05/15 11:36:43;;;;;;;6.65;3.17;;;24.00;93.40;;;;;;5050058;28;20900;-53
2022/05/15 11:39:25;;;;;;;10.30;4.03;;;24.10;95.90;;;;;;5048374;28;20229;-53
2022/05/15 11:42:14;;;;;;;8.10;3.28;;;24.20;94.80;;;;;;5067451;28;20216;-53
2022/05/15 11:44:44;;;;;;;7.43;3.30;;;24.10;94.90;;;;;;5052803;28;20205;-53
2022/05/15 11:47:37;;;;;;;6.72;3.22;;;24.20;96.00;;;;;;5049774;28;20208;-52
2022/05/15 11:50:12;;;;;;;6.18;3.60;;;24.20;94.30;;;;;;5060028;28;20713;-53
2022/05/15 11:53:02;;;;;;;8.45;3.05;;;24.10;94.10;;;;;;5068188;28;20847;-53
2022/05/15 11:55:46;;;;;;;7.80;3.30;;;24.10;94.60;;;;;;5069180;28;20233;-53
2022/05/15 11:58:36;;;;;;;8.00;3.33;;;24.00;96.10;;;;;;5070446;28;20251;-53
2022/05/15 12:01:09;;;;;;;9.15;3.60;;;24.00;93.90;;;;;;5068951;28;20577;-53
2022/05/15 12:04:01;;;;;;;5.45;2.90;;;24.10;93.90;;;;;;5069561;28;20189;-51
2022/05/15 12:06:32;;;;;;;7.40;3.40;;;24.10;94.10;;;;;;5065513;28;20734;-53
2022/05/15 12:09:27;;;;;;;8.40;3.30;;;24.20;93.80;;;;;;5068530;28;20256;-53
2022/05/15 12:11:59;;;;;;;7.20;3.03;;;24.20;94.80;;;;;;5068929;28;20236;-51
2022/05/15 12:14:35;;;;;;;7.43;3.00;;;24.20;92.70;;;;;;5069634;28;20665;-52
2022/05/15 12:17:17;;;;;;;7.78;2.88;;;24.10;92.60;;;;;;5070235;28;20208;-52
2022/05/15 12:19:49;;;;;;;5.78;2.92;;;24.20;91.40;;;;;;5069805;28;20231;-52
2022/05/15 12:22:18;;;;;;;4.93;2.85;;;24.20;91.80;;;;;;5069550;28;20274;-53
2022/05/15 12:24:48;;;;;;;7.50;2.95;;;24.20;90.20;;;;;;5065167;28;20245;-52
2022/05/15 12:27:24;;;;;;;7.82;3.42;;;24.10;90.50;;;;;;5050080;28;20678;-52
2022/05/15 12:30:11;;;;;;;7.18;3.20;;;24.00;90.60;;;;;;5059694;28;20256;-52
2022/05/15 12:32:44;;;;;;;7.68;3.03;;;24.10;92.60;;;;;;5060623;28;20220;-52
2022/05/15 12:35:17;;;;;;;7.60;2.90;;;24.10;91.90;;;;;;5057420;28;20228;-53
2022/05/15 12:37:58;;;;;;;7.95;3.30;;;24.20;91.60;;;;;;5049429;28;20221;-52
2022/05/15 12:40:31;;;;;;;5.50;2.67;;;24.10;92.50;;;;;;5048595;28;20640;-52
2022/05/15 12:43:01;;;;;;;4.00;2.58;;;24.10;91.30;;;;;;5049291;28;20682;-52
2022/05/15 12:45:33;;;;;;;4.47;2.65;;;24.10;90.40;;;;;;5049195;28;20746;-52
2022/05/15 12:48:06;;;;;;;6.53;2.65;;;24.10;90.00;;;;;;5050041;28;20646;-52
2022/05/15 12:50:49;;;;;;;5.32;2.92;;;24.10;87.60;;;;;;5063993;28;20277;-52
2022/05/15 12:53:24;;;;;;;6.32;2.80;;;24.00;88.60;;;;;;5068639;28;20239;-52
2022/05/15 12:55:54;;;;;;;4.57;2.67;;;24.10;90.00;;;;;;5069231;28;20204;-53
2022/05/15 12:58:33;;;;;;;5.15;2.65;;;24.10;84.40;;;;;;5069312;28;20185;-52
2022/05/15 13:01:01;;;;;;;6.88;3.08;;;24.00;83.20;;;;;;5069262;28;20228;-53
2022/05/15 13:03:30;;;;;;;4.25;2.50;;;24.00;81.90;;;;;;5068422;28;20255;-52
2022/05/15 13:06:01;;;;;;;4.65;2.40;;;24.00;82.50;;;;;;5059915;28;20221;-53
2022/05/15 13:08:43;;;;;;;6.25;2.42;;;24.00;81.50;;;;;;5048819;28;20306;-53
2022/05/15 13:11:18;;;;;;;6.35;2.60;;;23.90;76.50;;;;;;5068326;28;20192;-53
2022/05/15 13:13:48;;;;;;;5.40;2.75;;;23.90;79.40;;;;;;5067527;28;20238;-53
2022/05/15 13:16:21;;;;;;;4.38;2.30;;;23.80;77.20;;;;;;5068764;28;20259;-53
2022/05/15 13:18:51;;;;;;;5.38;2.50;;;23.70;79.50;;;;;;5054430;28;20893;-53
2022/05/15 13:21:33;;;;;;;5.47;2.75;;;23.80;84.00;;;;;;5048855;28;20257;-53
2022/05/15 13:24:04;;;;;;;6.80;2.90;;;23.90;87.10;;;;;;5045567;28;20233;-53
2022/05/15 13:26:39;;;;;;;9.75;3.50;;;24.00;85.40;;;;;;5059096;28;20252;-53